sensor_id;sensor_type;location;lat;lon;timestamp;P1;durP1;ratioP1;P2;durP2;ratioP2
38220;SDS011;24023;51.280;7.148;2023-02-19T00:00:11;4.9;;;4.5;;
38220;SDS011;24023;51.280;7.148;2023-02-19T00:05:06;4.5;;;4.2;;
38220;SDS011;24023;51.280;7.148;2023-02-19T00:10:08;4.5;;;4.2;;
38220;SDS011;24023;51.280;7.148;2023-02-19T00:15:07;5.6;;;4.8;;
38220;SDS011;24023;51.280;7.148;2023-02-19T00:20:08;5.6;;;4.8;;
38220;SDS011;24023;51.280;7.148;2023-02-19T00:25:06;5.6;;;4.8;;
38220;SDS011;24023;51.280;7.148;2023-02-19T00:30:09;4.7;;;4.3;;
38220;SDS011;24023;51.280;7.148;2023-02-19T00:35:06;4.7;;;4.3;;
38220;SDS011;24023;51.280;7.148;2023-02-19T00:40:08;4.7;;;4.3;;
38220;SDS011;24023;51.280;7.148;2023-02-19T00:45:09;4.7;;;4.3;;
38220;SDS011;24023;51.280;7.148;2023-02-19T00:50:07;4.7;;;4.3;;
38220;SDS011;24023;51.280;7.148;2023-02-19T00:55:06;5.3;;;4.0;;
38220;SDS011;24023;51.280;7.148;2023-02-19T01:00:10;5.3;;;4.0;;
38220;SDS011;24023;51.280;7.148;2023-02-19T01:05:06;4.0;;;3.7;;
38220;SDS011;24023;51.280;7.148;2023-02-19T01:10:08;4.0;;;3.7;;
38220;SDS011;24023;51.280;7.148;2023-02-19T01:15:07;4.0;;;3.7;;
38220;SDS011;24023;51.280;7.148;2023-02-19T01:20:07;4.8;;;4.4;;
38220;SDS011;24023;51.280;7.148;2023-02-19T01:25:06;7.1;;;6.5;;
38220;SDS011;24023;51.280;7.148;2023-02-19T01:30:10;7.1;;;6.5;;
38220;SDS011;24023;51.280;7.148;2023-02-19T01:35:06;7.1;;;6.5;;
38220;SDS011;24023;51.280;7.148;2023-02-19T01:40:07;7.0;;;6.3;;
38220;SDS011;24023;51.280;7.148;2023-02-19T01:45:15;7.0;;;6.3;;
38220;SDS011;24023;51.280;7.148;2023-02-19T01:50:07;8.5;;;7.7;;
38220;SDS011;24023;51.280;7.148;2023-02-19T01:55:06;8.5;;;7.7;;
38220;SDS011;24023;51.280;7.148;2023-02-19T02:00:11;8.5;;;7.7;;
38220;SDS011;24023;51.280;7.148;2023-02-19T02:05:06;8.0;;;7.2;;
38220;SDS011;24023;51.280;7.148;2023-02-19T02:10:23;8.0;;;7.2;;
38220;SDS011;24023;51.280;7.148;2023-02-19T02:15:07;7.6;;;6.9;;
38220;SDS011;24023;51.280;7.148;2023-02-19T02:20:16;7.6;;;6.9;;
38220;SDS011;24023;51.280;7.148;2023-02-19T02:25:13;8.8;;;7.9;;
38220;SDS011;24023;51.280;7.148;2023-02-19T02:30:09;8.8;;;7.9;;
38220;SDS011;24023;51.280;7.148;2023-02-19T02:35:07;8.8;;;7.9;;
38220;SDS011;24023;51.280;7.148;2023-02-19T02:40:09;8.7;;;7.6;;
38220;SDS011;24023;51.280;7.148;2023-02-19T02:45:40;8.7;;;7.6;;
38220;SDS011;24023;51.280;7.148;2023-02-19T02:50:09;9.4;;;8.0;;
38220;SDS011;24023;51.280;7.148;2023-02-19T02:55:06;9.4;;;8.0;;
38220;SDS011;24023;51.280;7.148;2023-02-19T03:06:11;11.9;;;8.7;;
38220;SDS011;24023;51.280;7.148;2023-02-19T03:10:09;11.9;;;8.7;;
38220;SDS011;24023;51.280;7.148;2023-02-19T03:20:09;9.4;;;8.5;;
38220;SDS011;24023;51.280;7.148;2023-02-19T03:26:13;9.4;;;8.5;;
38220;SDS011;24023;51.280;7.148;2023-02-19T03:30:10;10.5;;;9.4;;
38220;SDS011;24023;51.280;7.148;2023-02-19T03:35:08;10.5;;;9.4;;
38220;SDS011;24023;51.280;7.148;2023-02-19T03:40:08;11.7;;;9.2;;
38220;SDS011;24023;51.280;7.148;2023-02-19T03:45:14;11.7;;;9.2;;
38220;SDS011;24023;51.280;7.148;2023-02-19T03:50:10;11.7;;;9.2;;
38220;SDS011;24023;51.280;7.148;2023-02-19T03:55:07;10.2;;;8.9;;
38220;SDS011;24023;51.280;7.148;2023-02-19T04:00:15;10.2;;;8.9;;
38220;SDS011;24023;51.280;7.148;2023-02-19T04:05:08;11.5;;;9.7;;
38220;SDS011;24023;51.280;7.148;2023-02-19T04:10:08;11.5;;;9.7;;
38220;SDS011;24023;51.280;7.148;2023-02-19T04:15:09;11.4;;;9.2;;
38220;SDS011;24023;51.280;7.148;2023-02-19T04:20:07;11.4;;;9.2;;
38220;SDS011;24023;51.280;7.148;2023-02-19T04:25:06;11.4;;;9.2;;
38220;SDS011;24023;51.280;7.148;2023-02-19T04:30:13;11.1;;;8.7;;
38220;SDS011;24023;51.280;7.148;2023-02-19T04:35:06;11.1;;;8.7;;
38220;SDS011;24023;51.280;7.148;2023-02-19T04:40:08;10.2;;;8.8;;
38220;SDS011;24023;51.280;7.148;2023-02-19T04:45:09;10.2;;;8.8;;
38220;SDS011;24023;51.280;7.148;2023-02-19T04:50:07;10.2;;;8.8;;
38220;SDS011;24023;51.280;7.148;2023-02-19T04:55:06;11.4;;;9.5;;
38220;SDS011;24023;51.280;7.148;2023-02-19T05:00:13;11.4;;;9.5;;
38220;SDS011;24023;51.280;7.148;2023-02-19T05:05:06;9.7;;;7.8;;
38220;SDS011;24023;51.280;7.148;2023-02-19T05:10:07;9.7;;;7.8;;
38220;SDS011;24023;51.280;7.148;2023-02-19T05:15:07;9.7;;;7.8;;
38220;SDS011;24023;51.280;7.148;2023-02-19T05:20:08;9.4;;;7.6;;
38220;SDS011;24023;51.280;7.148;2023-02-19T05:25:07;11.8;;;10.2;;
38220;SDS011;24023;51.280;7.148;2023-02-19T05:30:10;11.8;;;10.2;;
38220;SDS011;24023;51.280;7.148;2023-02-19T05:35:05;17.0;;;14.2;;
38220;SDS011;24023;51.280;7.148;2023-02-19T05:40:08;17.0;;;14.2;;
38220;SDS011;24023;51.280;7.148;2023-02-19T05:45:10;14.1;;;12.6;;
38220;SDS011;24023;51.280;7.148;2023-02-19T05:50:07;14.1;;;12.6;;
38220;SDS011;24023;51.280;7.148;2023-02-19T05:55:06;11.3;;;10.1;;
38220;SDS011;24023;51.280;7.148;2023-02-19T06:00:11;11.3;;;10.1;;
38220;SDS011;24023;51.280;7.148;2023-02-19T06:05:06;11.3;;;10.1;;
38220;SDS011;24023;51.280;7.148;2023-02-19T06:10:08;11.8;;;10.4;;
38220;SDS011;24023;51.280;7.148;2023-02-19T06:15:07;11.8;;;10.4;;
38220;SDS011;24023;51.280;7.148;2023-02-19T06:20:08;11.2;;;9.6;;
38220;SDS011;24023;51.280;7.148;2023-02-19T06:25:11;11.3;;;7.1;;
38220;SDS011;24023;51.280;7.148;2023-02-19T06:30:10;11.3;;;7.1;;
38220;SDS011;24023;51.280;7.148;2023-02-19T06:35:06;9.1;;;6.5;;
38220;SDS011;24023;51.280;7.148;2023-02-19T06:40:07;9.1;;;6.5;;
38220;SDS011;24023;51.280;7.148;2023-02-19T06:45:09;8.2;;;5.2;;
38220;SDS011;24023;51.280;7.148;2023-02-19T06:50:07;8.2;;;5.2;;
38220;SDS011;24023;51.280;7.148;2023-02-19T06:55:06;8.2;;;5.2;;
38220;SDS011;24023;51.280;7.148;2023-02-19T07:00:10;7.8;;;5.2;;
38220;SDS011;24023;51.280;7.148;2023-02-19T07:05:06;7.8;;;5.2;;
38220;SDS011;24023;51.280;7.148;2023-02-19T07:10:07;6.9;;;4.7;;
38220;SDS011;24023;51.280;7.148;2023-02-19T07:15:07;6.9;;;4.7;;
38220;SDS011;24023;51.280;7.148;2023-02-19T07:20:08;6.9;;;4.7;;
38220;SDS011;24023;51.280;7.148;2023-02-19T07:25:06;7.2;;;5.0;;
38220;SDS011;24023;51.280;7.148;2023-02-19T07:30:10;7.2;;;5.0;;
38220;SDS011;24023;51.280;7.148;2023-02-19T07:35:06;10.1;;;6.8;;
38220;SDS011;24023;51.280;7.148;2023-02-19T07:40:08;10.1;;;6.8;;
38220;SDS011;24023;51.280;7.148;2023-02-19T07:45:10;11.5;;;9.0;;
38220;SDS011;24023;51.280;7.148;2023-02-19T07:50:07;11.5;;;9.0;;
38220;SDS011;24023;51.280;7.148;2023-02-19T07:55:06;11.5;;;9.0;;
38220;SDS011;24023;51.280;7.148;2023-02-19T08:00:11;10.4;;;8.5;;
38220;SDS011;24023;51.280;7.148;2023-02-19T08:05:06;12.4;;;8.6;;
38220;SDS011;24023;51.280;7.148;2023-02-19T08:15:07;10.6;;;7.9;;
38220;SDS011;24023;51.280;7.148;2023-02-19T08:20:08;10.6;;;7.9;;
38220;SDS011;24023;51.280;7.148;2023-02-19T08:25:07;10.6;;;7.9;;
38220;SDS011;24023;51.280;7.148;2023-02-19T08:30:10;11.4;;;8.1;;
38220;SDS011;24023;51.280;7.148;2023-02-19T08:35:06;11.4;;;8.1;;
38220;SDS011;24023;51.280;7.148;2023-02-19T08:40:08;11.0;;;9.3;;
38220;SDS011;24023;51.280;7.148;2023-02-19T08:45:08;15.7;;;14.1;;
38220;SDS011;24023;51.280;7.148;2023-02-19T08:50:07;15.7;;;14.1;;
38220;SDS011;24023;51.280;7.148;2023-02-19T08:55:06;15.7;;;14.1;;
38220;SDS011;24023;51.280;7.148;2023-02-19T09:00:11;16.1;;;14.0;;
38220;SDS011;24023;51.280;7.148;2023-02-19T09:05:06;11.0;;;9.0;;
38220;SDS011;24023;51.280;7.148;2023-02-19T09:10:09;11.0;;;9.0;;
38220;SDS011;24023;51.280;7.148;2023-02-19T09:15:08;8.0;;;5.4;;
38220;SDS011;24023;51.280;7.148;2023-02-19T09:20:08;8.0;;;5.4;;
38220;SDS011;24023;51.280;7.148;2023-02-19T09:25:06;8.0;;;5.4;;
38220;SDS011;24023;51.280;7.148;2023-02-19T09:30:09;9.2;;;4.6;;
38220;SDS011;24023;51.280;7.148;2023-02-19T09:35:06;9.2;;;4.6;;
38220;SDS011;24023;51.280;7.148;2023-02-19T09:40:08;8.7;;;4.5;;
38220;SDS011;24023;51.280;7.148;2023-02-19T09:45:12;8.7;;;4.5;;
38220;SDS011;24023;51.280;7.148;2023-02-19T09:50:08;8.1;;;4.6;;
38220;SDS011;24023;51.280;7.148;2023-02-19T09:55:12;8.1;;;4.6;;
38220;SDS011;24023;51.280;7.148;2023-02-19T10:00:18;8.1;;;4.6;;
38220;SDS011;24023;51.280;7.148;2023-02-19T10:05:08;8.2;;;5.5;;
38220;SDS011;24023;51.280;7.148;2023-02-19T10:10:18;8.2;;;5.5;;
38220;SDS011;24023;51.280;7.148;2023-02-19T10:15:09;8.4;;;4.3;;
38220;SDS011;24023;51.280;7.148;2023-02-19T10:20:08;8.4;;;4.3;;
38220;SDS011;24023;51.280;7.148;2023-02-19T10:25:07;5.4;;;3.5;;
38220;SDS011;24023;51.280;7.148;2023-02-19T10:30:10;5.4;;;3.5;;
38220;SDS011;24023;51.280;7.148;2023-02-19T10:35:07;5.4;;;3.5;;
38220;SDS011;24023;51.280;7.148;2023-02-19T10:40:11;5.7;;;4.4;;
38220;SDS011;24023;51.280;7.148;2023-02-19T10:45:11;5.7;;;4.4;;
38220;SDS011;24023;51.280;7.148;2023-02-19T10:50:15;4.4;;;3.4;;
38220;SDS011;24023;51.280;7.148;2023-02-19T10:55:14;4.4;;;3.4;;
38220;SDS011;24023;51.280;7.148;2023-02-19T11:00:18;4.4;;;3.4;;
38220;SDS011;24023;51.280;7.148;2023-02-19T11:05:14;5.8;;;4.4;;
38220;SDS011;24023;51.280;7.148;2023-02-19T11:10:17;5.8;;;4.4;;
38220;SDS011;24023;51.280;7.148;2023-02-19T11:15:16;5.7;;;5.1;;
38220;SDS011;24023;51.280;7.148;2023-02-19T11:20:08;5.7;;;5.1;;
38220;SDS011;24023;51.280;7.148;2023-02-19T11:25:13;7.9;;;7.1;;
38220;SDS011;24023;51.280;7.148;2023-02-19T11:30:33;7.9;;;7.1;;
38220;SDS011;24023;51.280;7.148;2023-02-19T11:35:15;6.5;;;5.4;;
38220;SDS011;24023;51.280;7.148;2023-02-19T11:40:10;6.5;;;5.4;;
38220;SDS011;24023;51.280;7.148;2023-02-19T11:45:12;6.5;;;5.4;;
38220;SDS011;24023;51.280;7.148;2023-02-19T11:50:11;6.1;;;5.5;;
38220;SDS011;24023;51.280;7.148;2023-02-19T11:55:08;6.1;;;5.5;;
38220;SDS011;24023;51.280;7.148;2023-02-19T12:00:16;6.1;;;5.6;;
38220;SDS011;24023;51.280;7.148;2023-02-19T12:05:39;11.1;;;10.1;;
38220;SDS011;24023;51.280;7.148;2023-02-19T12:10:09;11.1;;;10.1;;
38220;SDS011;24023;51.280;7.148;2023-02-19T12:15:15;11.1;;;10.1;;
38220;SDS011;24023;51.280;7.148;2023-02-19T12:20:12;10.7;;;9.7;;
38220;SDS011;24023;51.280;7.148;2023-02-19T12:25:24;8.6;;;7.8;;
38220;SDS011;24023;51.280;7.148;2023-02-19T12:30:16;8.6;;;7.8;;
38220;SDS011;24023;51.280;7.148;2023-02-19T12:35:14;5.8;;;5.2;;
38220;SDS011;24023;51.280;7.148;2023-02-19T12:40:12;5.8;;;5.2;;
38220;SDS011;24023;51.280;7.148;2023-02-19T12:45:13;2.6;;;2.4;;
38220;SDS011;24023;51.280;7.148;2023-02-19T12:50:15;2.6;;;2.4;;
38220;SDS011;24023;51.280;7.148;2023-02-19T12:55:10;2.6;;;2.4;;
38220;SDS011;24023;51.280;7.148;2023-02-19T13:00:11;1.5;;;1.3;;
38220;SDS011;24023;51.280;7.148;2023-02-19T13:05:07;1.5;;;1.3;;
38220;SDS011;24023;51.280;7.148;2023-02-19T13:10:15;2.0;;;1.0;;
38220;SDS011;24023;51.280;7.148;2023-02-19T13:15:12;2.0;;;1.0;;
38220;SDS011;24023;51.280;7.148;2023-02-19T13:20:13;2.0;;;1.0;;
38220;SDS011;24023;51.280;7.148;2023-02-19T13:25:06;2.0;;;1.5;;
38220;SDS011;24023;51.280;7.148;2023-02-19T13:30:18;2.0;;;1.5;;
38220;SDS011;24023;51.280;7.148;2023-02-19T13:35:15;2.0;;;1.5;;
38220;SDS011;24023;51.280;7.148;2023-02-19T13:40:16;3.0;;;2.3;;
38220;SDS011;24023;51.280;7.148;2023-02-19T13:45:18;3.0;;;2.3;;
38220;SDS011;24023;51.280;7.148;2023-02-19T13:50:11;3.2;;;2.6;;
38220;SDS011;24023;51.280;7.148;2023-02-19T13:56:34;3.2;;;2.6;;
38220;SDS011;24023;51.280;7.148;2023-02-19T14:00:45;3.2;;;2.6;;
38220;SDS011;24023;51.280;7.148;2023-02-19T14:05:07;3.1;;;2.8;;
38220;SDS011;24023;51.280;7.148;2023-02-19T14:10:10;3.1;;;2.8;;
38220;SDS011;24023;51.280;7.148;2023-02-19T14:15:40;5.8;;;3.6;;
38220;SDS011;24023;51.280;7.148;2023-02-19T14:20:38;5.8;;;3.6;;
38220;SDS011;24023;51.280;7.148;2023-02-19T14:25:07;3.9;;;3.4;;
38220;SDS011;24023;51.280;7.148;2023-02-19T14:30:09;3.9;;;3.4;;
38220;SDS011;24023;51.280;7.148;2023-02-19T14:35:16;5.7;;;4.3;;
38220;SDS011;24023;51.280;7.148;2023-02-19T14:40:09;5.7;;;4.3;;
38220;SDS011;24023;51.280;7.148;2023-02-19T14:45:08;5.7;;;4.3;;
38220;SDS011;24023;51.280;7.148;2023-02-19T14:50:08;5.5;;;4.8;;
38220;SDS011;24023;51.280;7.148;2023-02-19T14:55:09;7.8;;;5.8;;
38220;SDS011;24023;51.280;7.148;2023-02-19T15:00:27;7.8;;;5.8;;
38220;SDS011;24023;51.280;7.148;2023-02-19T15:05:14;7.8;;;5.8;;
38220;SDS011;24023;51.280;7.148;2023-02-19T15:10:08;7.8;;;5.8;;
38220;SDS011;24023;51.280;7.148;2023-02-19T15:15:07;7.3;;;6.4;;
38220;SDS011;24023;51.280;7.148;2023-02-19T15:20:08;7.3;;;6.4;;
38220;SDS011;24023;51.280;7.148;2023-02-19T15:25:06;7.3;;;6.4;;
38220;SDS011;24023;51.280;7.148;2023-02-19T15:30:17;8.2;;;7.5;;
38220;SDS011;24023;51.280;7.148;2023-02-19T15:35:06;8.2;;;7.5;;
38220;SDS011;24023;51.280;7.148;2023-02-19T15:40:11;9.1;;;8.3;;
38220;SDS011;24023;51.280;7.148;2023-02-19T15:45:13;9.1;;;8.3;;
38220;SDS011;24023;51.280;7.148;2023-02-19T15:50:08;9.1;;;8.2;;
38220;SDS011;24023;51.280;7.148;2023-02-19T15:55:07;9.1;;;8.2;;
38220;SDS011;24023;51.280;7.148;2023-02-19T16:00:12;9.1;;;8.2;;
38220;SDS011;24023;51.280;7.148;2023-02-19T16:05:10;6.7;;;6.0;;
38220;SDS011;24023;51.280;7.148;2023-02-19T16:10:23;6.7;;;6.0;;
38220;SDS011;24023;51.280;7.148;2023-02-19T16:15:11;5.1;;;4.6;;
38220;SDS011;24023;51.280;7.148;2023-02-19T16:20:15;5.1;;;4.6;;
38220;SDS011;24023;51.280;7.148;2023-02-19T16:25:06;5.1;;;4.6;;
38220;SDS011;24023;51.280;7.148;2023-02-19T16:30:19;4.3;;;3.2;;
38220;SDS011;24023;51.280;7.148;2023-02-19T16:35:26;4.3;;;3.2;;
38220;SDS011;24023;51.280;7.148;2023-02-19T16:41:13;3.9;;;2.7;;
38220;SDS011;24023;51.280;7.148;2023-02-19T16:45:09;3.9;;;2.7;;
38220;SDS011;24023;51.280;7.148;2023-02-19T16:50:10;4.3;;;3.1;;
38220;SDS011;24023;51.280;7.148;2023-02-19T16:55:10;4.3;;;3.1;;
38220;SDS011;24023;51.280;7.148;2023-02-19T17:00:14;4.3;;;3.1;;
38220;SDS011;24023;51.280;7.148;2023-02-19T17:05:06;4.8;;;3.5;;
38220;SDS011;24023;51.280;7.148;2023-02-19T17:10:09;4.4;;;2.4;;
38220;SDS011;24023;51.280;7.148;2023-02-19T17:15:07;2.0;;;1.0;;
38220;SDS011;24023;51.280;7.148;2023-02-19T17:20:12;2.0;;;1.0;;
38220;SDS011;24023;51.280;7.148;2023-02-19T17:25:06;2.0;;;1.0;;
38220;SDS011;24023;51.280;7.148;2023-02-19T17:30:09;2.2;;;0.7;;
38220;SDS011;24023;51.280;7.148;2023-02-19T17:35:06;2.2;;;0.7;;
38220;SDS011;24023;51.280;7.148;2023-02-19T17:40:10;2.8;;;1.6;;
38220;SDS011;24023;51.280;7.148;2023-02-19T17:45:10;5.0;;;3.0;;
38220;SDS011;24023;51.280;7.148;2023-02-19T17:50:08;5.0;;;3.0;;
38220;SDS011;24023;51.280;7.148;2023-02-19T17:55:06;5.0;;;3.0;;
38220;SDS011;24023;51.280;7.148;2023-02-19T18:00:12;5.0;;;4.5;;
38220;SDS011;24023;51.280;7.148;2023-02-19T18:05:07;5.0;;;4.5;;
38220;SDS011;24023;51.280;7.148;2023-02-19T18:10:07;5.0;;;4.5;;
38220;SDS011;24023;51.280;7.148;2023-02-19T18:15:09;5.0;;;4.5;;
38220;SDS011;24023;51.280;7.148;2023-02-19T18:20:11;4.9;;;4.5;;
38220;SDS011;24023;51.280;7.148;2023-02-19T18:25:06;4.9;;;4.5;;
38220;SDS011;24023;51.280;7.148;2023-02-19T18:30:11;4.9;;;4.5;;
38220;SDS011;24023;51.280;7.148;2023-02-19T18:35:06;5.2;;;4.5;;
38220;SDS011;24023;51.280;7.148;2023-02-19T18:40:08;5.2;;;4.5;;
38220;SDS011;24023;51.280;7.148;2023-02-19T18:45:08;3.4;;;3.1;;
38220;SDS011;24023;51.280;7.148;2023-02-19T18:50:09;3.4;;;3.1;;
38220;SDS011;24023;51.280;7.148;2023-02-19T18:55:06;5.8;;;4.4;;
38220;SDS011;24023;51.280;7.148;2023-02-19T19:00:14;5.8;;;4.4;;
38220;SDS011;24023;51.280;7.148;2023-02-19T19:05:06;3.1;;;2.8;;
38220;SDS011;24023;51.280;7.148;2023-02-19T19:10:08;3.1;;;2.8;;
38220;SDS011;24023;51.280;7.148;2023-02-19T19:15:07;3.1;;;2.8;;
38220;SDS011;24023;51.280;7.148;2023-02-19T19:20:08;4.3;;;3.9;;
38220;SDS011;24023;51.280;7.148;2023-02-19T19:25:07;4.3;;;3.9;;
38220;SDS011;24023;51.280;7.148;2023-02-19T19:30:10;5.3;;;4.9;;
38220;SDS011;24023;51.280;7.148;2023-02-19T19:35:06;5.3;;;4.9;;
38220;SDS011;24023;51.280;7.148;2023-02-19T19:40:08;5.9;;;5.4;;
38220;SDS011;24023;51.280;7.148;2023-02-19T19:45:11;3.0;;;2.8;;
38220;SDS011;24023;51.280;7.148;2023-02-19T19:50:08;3.0;;;2.8;;
38220;SDS011;24023;51.280;7.148;2023-02-19T19:55:06;3.0;;;2.8;;
38220;SDS011;24023;51.280;7.148;2023-02-19T20:00:13;3.5;;;2.5;;
38220;SDS011;24023;51.280;7.148;2023-02-19T20:05:06;3.5;;;2.5;;
38220;SDS011;24023;51.280;7.148;2023-02-19T20:10:10;3.3;;;3.0;;
38220;SDS011;24023;51.280;7.148;2023-02-19T20:15:07;3.3;;;3.0;;
38220;SDS011;24023;51.280;7.148;2023-02-19T20:20:08;4.1;;;3.7;;
38220;SDS011;24023;51.280;7.148;2023-02-19T20:25:06;2.8;;;2.1;;
38220;SDS011;24023;51.280;7.148;2023-02-19T20:30:09;2.8;;;2.1;;
38220;SDS011;24023;51.280;7.148;2023-02-19T20:35:06;2.6;;;2.0;;
38220;SDS011;24023;51.280;7.148;2023-02-19T20:40:10;2.6;;;2.0;;
38220;SDS011;24023;51.280;7.148;2023-02-19T20:45:09;2.6;;;2.0;;
38220;SDS011;24023;51.280;7.148;2023-02-19T20:50:08;2.5;;;1.7;;
38220;SDS011;24023;51.280;7.148;2023-02-19T20:55:06;2.5;;;1.7;;
38220;SDS011;24023;51.280;7.148;2023-02-19T21:00:10;2.8;;;1.6;;
38220;SDS011;24023;51.280;7.148;2023-02-19T21:05:07;2.8;;;1.6;;
38220;SDS011;24023;51.280;7.148;2023-02-19T21:10:08;2.8;;;1.6;;
38220;SDS011;24023;51.280;7.148;2023-02-19T21:15:08;1.8;;;1.2;;
38220;SDS011;24023;51.280;7.148;2023-02-19T21:20:08;1.8;;;1.2;;
38220;SDS011;24023;51.280;7.148;2023-02-19T21:25:06;2.0;;;1.1;;
38220;SDS011;24023;51.280;7.148;2023-02-19T21:30:09;2.0;;;1.1;;
38220;SDS011;24023;51.280;7.148;2023-02-19T21:35:06;1.5;;;0.8;;
38220;SDS011;24023;51.280;7.148;2023-02-19T21:40:08;1.5;;;0.8;;
38220;SDS011;24023;51.280;7.148;2023-02-19T21:45:10;1.5;;;0.8;;
38220;SDS011;24023;51.280;7.148;2023-02-19T21:50:08;2.1;;;0.8;;
38220;SDS011;24023;51.280;7.148;2023-02-19T21:55:06;2.1;;;0.9;;
38220;SDS011;24023;51.280;7.148;2023-02-19T22:00:11;2.1;;;0.9;;
38220;SDS011;24023;51.280;7.148;2023-02-19T22:05:06;2.1;;;0.9;;
38220;SDS011;24023;51.280;7.148;2023-02-19T22:10:08;1.3;;;0.9;;
38220;SDS011;24023;51.280;7.148;2023-02-19T22:15:08;2.9;;;0.9;;
38220;SDS011;24023;51.280;7.148;2023-02-19T22:20:08;2.9;;;0.9;;
38220;SDS011;24023;51.280;7.148;2023-02-19T22:25:07;1.2;;;0.8;;
38220;SDS011;24023;51.280;7.148;2023-02-19T22:30:09;1.2;;;0.8;;
38220;SDS011;24023;51.280;7.148;2023-02-19T22:35:06;1.9;;;1.0;;
38220;SDS011;24023;51.280;7.148;2023-02-19T22:40:08;1.9;;;1.0;;
38220;SDS011;24023;51.280;7.148;2023-02-19T22:45:09;1.9;;;1.0;;
38220;SDS011;24023;51.280;7.148;2023-02-19T22:50:14;1.6;;;0.9;;
38220;SDS011;24023;51.280;7.148;2023-02-19T22:55:06;1.6;;;0.9;;
38220;SDS011;24023;51.280;7.148;2023-02-19T23:00:25;2.5;;;1.1;;
38220;SDS011;24023;51.280;7.148;2023-02-19T23:05:08;2.5;;;1.1;;
38220;SDS011;24023;51.280;7.148;2023-02-19T23:10:08;2.5;;;1.1;;
38220;SDS011;24023;51.280;7.148;2023-02-19T23:15:08;2.5;;;1.1;;
38220;SDS011;24023;51.280;7.148;2023-02-19T23:20:08;2.6;;;1.4;;
38220;SDS011;24023;51.280;7.148;2023-02-19T23:25:07;1.3;;;0.7;;
38220;SDS011;24023;51.280;7.148;2023-02-19T23:30:09;1.3;;;0.7;;
38220;SDS011;24023;51.280;7.148;2023-02-19T23:35:06;1.3;;;0.7;;
38220;SDS011;24023;51.280;7.148;2023-02-19T23:40:08;1.3;;;0.7;;
38220;SDS011;24023;51.280;7.148;2023-02-19T23:45:11;2.1;;;1.3;;
38220;SDS011;24023;51.280;7.148;2023-02-19T23:50:08;2.1;;;1.3;;
38220;SDS011;24023;51.280;7.148;2023-02-19T23:55:06;2.1;;;1.3;;
